Time;durP1;ratioP1;P1;durP2;ratioP2;P2;SDS_P1;SDS_P2;PMS_P1;PMS_P2;Temp;Humidity;BMP_temperature;BMP_pressure;BME280_temperature;BME280_humidity;BME280_pressure;Samples;Min_cycle;Max_cycle;Signal;HPM_P1;HPM_P2
2021/01/17 00:00:15;;;;;;;15.20;9.02;;;5.40;46.50;;;;;;5073359;28;20020;-72
2021/01/17 00:02:43;;;;;;;16.65;9.18;;;5.30;46.20;;;;;;5073910;28;20032;-72
2021/01/17 00:05:13;;;;;;;15.02;9.20;;;5.30;46.70;;;;;;5073562;28;20039;-72
2021/01/17 00:07:40;;;;;;;13.05;9.05;;;5.40;46.90;;;;;;5073605;28;20032;-71
2021/01/17 00:10:11;;;;;;;15.05;9.32;;;5.40;46.70;;;;;;5073010;28;20385;-73
2021/01/17 00:12:37;;;;;;;13.95;8.38;;;5.40;46.40;;;;;;5073363;28;20036;-71
2021/01/17 00:15:10;;;;;;;14.35;8.50;;;5.10;46.50;;;;;;5073289;28;20051;-71
2021/01/17 00:17:37;;;;;;;13.00;8.35;;;5.00;46.80;;;;;;5072053;28;20024;-71
2021/01/17 00:20:10;;;;;;;13.85;8.98;;;4.90;46.70;;;;;;5073047;28;20021;-71
2021/01/17 00:22:37;;;;;;;16.20;8.70;;;4.80;47.40;;;;;;5073719;28;20032;-72
2021/01/17 00:25:04;;;;;;;12.90;8.68;;;4.90;47.40;;;;;;5073232;28;20025;-70
2021/01/17 00:27:30;;;;;;;13.80;7.70;;;5.00;47.60;;;;;;5071863;28;20024;-71
2021/01/17 00:29:56;;;;;;;12.75;7.80;;;5.20;47.40;;;;;;5072937;28;20046;-71
2021/01/17 00:32:21;;;;;;;12.52;7.35;;;5.30;47.30;;;;;;5072888;28;20111;-72
2021/01/17 00:34:47;;;;;;;12.50;8.35;;;5.40;47.20;;;;;;5072956;28;20030;-71
2021/01/17 00:37:19;;;;;;;12.70;8.10;;;5.50;47.00;;;;;;5071782;28;20359;-71
2021/01/17 00:39:45;;;;;;;11.82;8.32;;;5.50;46.70;;;;;;5071415;28;20028;-71
2021/01/17 00:42:16;;;;;;;12.70;8.35;;;5.60;46.60;;;;;;5072966;28;20335;-71
2021/01/17 00:44:42;;;;;;;11.82;7.53;;;5.40;46.60;;;;;;5073019;28;20471;-72
2021/01/17 00:47:12;;;;;;;16.38;8.50;;;5.30;46.60;;;;;;5071656;28;20466;-71
2021/01/17 00:49:39;;;;;;;14.65;7.60;;;5.30;46.90;;;;;;5072769;28;20042;-71
2021/01/17 00:52:04;;;;;;;12.77;8.52;;;5.40;47.00;;;;;;5071979;28;20035;-72
2021/01/17 00:54:30;;;;;;;15.70;7.45;;;5.50;46.90;;;;;;5072948;28;20021;-71
2021/01/17 00:56:56;;;;;;;12.07;7.57;;;5.40;46.60;;;;;;5073258;28;20543;-72
2021/01/17 00:59:21;;;;;;;13.25;7.93;;;5.30;46.70;;;;;;5071446;28;20028;-71
2021/01/17 01:01:48;;;;;;;11.90;8.35;;;5.10;46.90;;;;;;5072717;28;20078;-71
2021/01/17 01:04:17;;;;;;;11.90;7.85;;;5.10;47.20;;;;;;5072816;28;20039;-71
2021/01/17 01:06:43;;;;;;;12.18;8.00;;;5.00;47.30;;;;;;5072699;28;20036;-72
2021/01/17 01:09:15;;;;;;;11.23;7.13;;;5.00;47.20;;;;;;5071216;28;20024;-71
2021/01/17 01:11:41;;;;;;;13.20;7.90;;;5.10;47.50;;;;;;5072888;28;20557;-71
2021/01/17 01:14:07;;;;;;;13.25;7.88;;;5.20;47.30;;;;;;5072530;28;20404;-70
2021/01/17 01:16:33;;;;;;;10.43;6.93;;;5.20;47.30;;;;;;5072477;28;20029;-72
2021/01/17 01:19:00;;;;;;;13.07;8.30;;;5.20;47.10;;;;;;5072769;28;20040;-71
2021/01/17 01:21:30;;;;;;;12.40;8.05;;;5.00;47.30;;;;;;5071074;28;20484;-72
2021/01/17 01:23:56;;;;;;;12.93;8.10;;;5.00;47.50;;;;;;5072650;28;20373;-71
2021/01/17 01:26:22;;;;;;;12.88;7.63;;;4.90;47.70;;;;;;5071318;28;20477;-71
2021/01/17 01:28:55;;;;;;;12.43;7.28;;;5.00;47.80;;;;;;5072544;28;20550;-71
2021/01/17 01:31:25;;;;;;;13.30;8.30;;;5.20;47.90;;;;;;5072390;28;20033;-71
2021/01/17 01:33:52;;;;;;;12.60;7.72;;;5.30;47.70;;;;;;5071110;28;20443;-70
2021/01/17 01:36:22;;;;;;;14.85;8.05;;;5.30;47.60;;;;;;5072362;28;20051;-71
2021/01/17 01:38:48;;;;;;;12.88;8.13;;;5.30;47.70;;;;;;5072566;28;20474;-71
2021/01/17 01:41:15;;;;;;;12.23;7.72;;;5.30;47.70;;;;;;5072360;28;20166;-71
2021/01/17 01:43:41;;;;;;;12.35;8.45;;;5.30;47.50;;;;;;5072589;28;20021;-71
2021/01/17 01:46:10;;;;;;;14.25;7.43;;;5.30;47.70;;;;;;5070988;28;20035;-71
2021/01/17 01:48:36;;;;;;;11.50;7.65;;;5.40;47.90;;;;;;5072538;28;20032;-71
2021/01/17 01:51:02;;;;;;;10.95;7.38;;;5.30;47.60;;;;;;5072187;28;20067;-71
2021/01/17 01:53:31;;;;;;;11.75;7.88;;;5.40;47.60;;;;;;5072285;28;20036;-71
2021/01/17 01:55:59;;;;;;;13.32;8.13;;;5.40;47.90;;;;;;5072451;28;20473;-71
2021/01/17 01:58:27;;;;;;;11.73;7.63;;;5.30;47.60;;;;;;5072273;28;20108;-71
2021/01/17 02:00:53;;;;;;;12.93;7.00;;;5.20;47.70;;;;;;5071980;28;20030;-71
2021/01/17 02:03:19;;;;;;;11.43;8.02;;;5.30;47.90;;;;;;5075153;28;20052;-70
2021/01/17 02:05:44;;;;;;;15.77;7.15;;;5.40;47.70;;;;;;5074390;28;20028;-70
2021/01/17 02:08:31;;;;;;;11.57;7.95;;;5.30;47.40;;;;;;5075876;28;20032;-72
2021/01/17 02:11:12;;;;;;;13.27;7.85;;;5.30;47.10;;;;;;5075425;28;20056;-71
2021/01/17 02:13:41;;;;;;;11.98;7.85;;;5.30;47.30;;;;;;5074141;28;20040;-71
2021/01/17 02:16:07;;;;;;;14.50;8.30;;;5.20;47.30;;;;;;5075612;28;20063;-72
2021/01/17 02:18:43;;;;;;;13.48;7.82;;;5.10;47.50;;;;;;5074150;28;20111;-71
2021/01/17 02:21:10;;;;;;;12.18;8.20;;;5.20;47.60;;;;;;5073947;28;20034;-71
2021/01/17 02:24:14;;;;;;;12.32;8.02;;;5.20;47.50;;;;;;5075521;28;20055;-72
2021/01/17 02:26:41;;;;;;;11.90;7.43;;;5.20;47.40;;;;;;5073217;28;20508;-70
2021/01/17 02:29:11;;;;;;;13.02;8.02;;;5.30;47.50;;;;;;5075025;28;20444;-71
2021/01/17 02:31:40;;;;;;;13.75;7.50;;;5.30;47.40;;;;;;5075215;28;20153;-72
2021/01/17 02:34:09;;;;;;;12.02;7.63;;;5.30;47.50;;;;;;5073726;28;20036;-71
2021/01/17 02:36:57;;;;;;;12.57;7.95;;;5.30;47.40;;;;;;5075112;28;20100;-70
2021/01/17 02:39:49;;;;;;;12.07;8.00;;;5.30;47.30;;;;;;5074840;28;20024;-71
2021/01/17 02:42:15;;;;;;;15.23;9.00;;;5.20;47.30;;;;;;5075085;28;20478;-70
2021/01/17 02:44:42;;;;;;;13.93;8.60;;;5.20;47.70;;;;;;5074945;28;20108;-72
2021/01/17 02:47:08;;;;;;;13.57;8.63;;;5.10;47.50;;;;;;5075035;28;20024;-70
2021/01/17 02:49:34;;;;;;;15.63;8.55;;;5.00;47.80;;;;;;5073463;28;20500;-71
2021/01/17 02:52:04;;;;;;;12.38;8.68;;;4.90;47.50;;;;;;5074541;28;20027;-71
2021/01/17 02:54:39;;;;;;;11.82;7.85;;;4.80;47.80;;;;;;5074611;28;20017;-71
2021/01/17 02:57:12;;;;;;;15.75;9.93;;;4.70;48.10;;;;;;5074487;28;20028;-71
2021/01/17 03:00:08;;;;;;;14.68;8.23;;;4.50;48.00;;;;;;5073263;28;20363;-71
2021/01/17 03:02:35;;;;;;;14.55;8.60;;;4.40;48.60;;;;;;5074436;28;20051;-70
2021/01/17 03:05:06;;;;;;;12.05;8.15;;;4.20;48.20;;;;;;5073186;28;20033;-70
2021/01/17 03:07:34;;;;;;;16.42;9.70;;;4.20;48.20;;;;;;5073114;28;20052;-71
2021/01/17 03:10:05;;;;;;;13.20;8.25;;;4.10;48.60;;;;;;5074379;28;20036;-70
2021/01/17 03:12:31;;;;;;;13.77;7.93;;;4.00;49.30;;;;;;5074296;28;20032;-71
2021/01/17 03:14:59;;;;;;;13.07;8.25;;;4.10;48.80;;;;;;5073984;28;20070;-71
2021/01/17 03:17:25;;;;;;;13.10;7.75;;;4.10;48.90;;;;;;5072796;28;20120;-72
2021/01/17 03:19:50;;;;;;;11.85;8.13;;;4.00;48.70;;;;;;5073032;28;20435;-72
2021/01/17 03:22:16;;;;;;;12.32;8.35;;;3.90;49.30;;;;;;5074258;28;20485;-72
2021/01/17 03:24:42;;;;;;;12.52;7.82;;;3.90;49.50;;;;;;5075145;28;20071;-72
2021/01/17 03:27:07;;;;;;;11.82;8.10;;;3.90;49.10;;;;;;5099039;28;20036;-71
2021/01/17 03:29:33;;;;;;;13.00;8.50;;;3.80;49.90;;;;;;5084882;28;20036;-71
2021/01/17 03:31:59;;;;;;;12.27;8.45;;;3.90;50.30;;;;;;5074425;28;20017;-71
2021/01/17 03:34:24;;;;;;;15.23;8.02;;;4.10;50.40;;;;;;5074288;28;20078;-71
2021/01/17 03:36:50;;;;;;;12.45;8.20;;;4.10;49.80;;;;;;5072883;28;20024;-71
2021/01/17 03:39:16;;;;;;;12.20;7.85;;;4.00;49.60;;;;;;5072658;28;20078;-71
2021/01/17 03:41:41;;;;;;;13.20;8.27;;;4.00;50.30;;;;;;5073852;28;20034;-70
2021/01/17 03:44:07;;;;;;;13.27;8.50;;;3.90;50.20;;;;;;5073964;28;20031;-71
2021/01/17 03:46:33;;;;;;;11.88;8.02;;;3.90;50.50;;;;;;5074077;28;20580;-72
2021/01/17 03:48:59;;;;;;;11.75;8.20;;;4.00;50.70;;;;;;5073800;28;20342;-72
2021/01/17 03:51:25;;;;;;;13.65;8.93;;;3.90;50.30;;;;;;5072195;28;20033;-70
2021/01/17 03:53:50;;;;;;;12.05;8.23;;;3.90;50.50;;;;;;5073562;28;20399;-71
2021/01/17 03:56:17;;;;;;;13.93;8.13;;;3.90;51.30;;;;;;5072388;28;20024;-71
2021/01/17 03:58:43;;;;;;;11.68;7.65;;;4.00;50.50;;;;;;5072375;28;20389;-71
2021/01/17 04:01:08;;;;;;;12.38;8.25;;;4.00;50.80;;;;;;5073446;28;20024;-70
2021/01/17 04:03:34;;;;;;;12.13;8.60;;;4.10;51.00;;;;;;5072350;28;20411;-72
2021/01/17 04:06:00;;;;;;;12.40;8.00;;;4.20;50.80;;;;;;5072217;28;20021;-71
2021/01/17 04:08:25;;;;;;;14.60;8.45;;;4.30;50.60;;;;;;5073638;28;20033;-70
2021/01/17 04:10:51;;;;;;;12.85;8.48;;;4.40;50.30;;;;;;5073177;28;20059;-71
2021/01/17 04:13:17;;;;;;;13.07;8.15;;;4.40;50.20;;;;;;5073548;28;20032;-71
2021/01/17 04:15:43;;;;;;;11.55;7.95;;;4.40;50.20;;;;;;5073415;28;20385;-71
2021/01/17 04:18:09;;;;;;;12.75;7.78;;;4.40;49.80;;;;;;5073423;28;20036;-71
2021/01/17 04:20:35;;;;;;;12.52;8.30;;;4.40;49.40;;;;;;5073233;28;20067;-71
2021/01/17 04:23:03;;;;;;;12.45;8.30;;;4.40;49.70;;;;;;5073524;28;20048;-71
2021/01/17 04:25:29;;;;;;;12.07;8.10;;;4.40;49.90;;;;;;5072480;28;20046;-71
2021/01/17 04:27:56;;;;;;;11.43;7.88;;;4.50;50.30;;;;;;5073098;28;20043;-71
2021/01/17 04:30:22;;;;;;;14.85;7.95;;;4.50;50.00;;;;;;5072837;28;20028;-70
2021/01/17 04:32:49;;;;;;;13.85;8.00;;;4.60;49.50;;;;;;5071666;28;20044;-71
2021/01/17 04:35:15;;;;;;;13.80;8.45;;;4.60;49.50;;;;;;5072940;28;20029;-71
2021/01/17 04:37:41;;;;;;;12.27;8.13;;;4.70;49.70;;;;;;5073140;28;20090;-69
2021/01/17 04:40:07;;;;;;;14.63;8.13;;;4.80;49.70;;;;;;5073143;28;20032;-71
2021/01/17 04:42:36;;;;;;;15.88;8.50;;;4.70;49.50;;;;;;5071976;28;20036;-71
2021/01/17 04:45:05;;;;;;;13.32;8.38;;;4.50;49.20;;;;;;5072935;28;20111;-70
2021/01/17 04:47:33;;;;;;;12.98;8.23;;;4.40;50.20;;;;;;5072887;28;20020;-70
2021/01/17 04:50:03;;;;;;;14.55;8.95;;;4.40;49.70;;;;;;5071801;28;20112;-71
2021/01/17 04:52:33;;;;;;;12.18;8.15;;;4.50;50.30;;;;;;5072739;28;20032;-71
2021/01/17 04:54:59;;;;;;;13.20;8.65;;;4.50;50.00;;;;;;5072862;28;20029;-72
2021/01/17 04:58:04;;;;;;;14.23;8.20;;;4.70;49.70;;;;;;5072924;28;20013;-71
2021/01/17 05:00:32;;;;;;;12.27;8.30;;;4.60;50.10;;;;;;5071407;28;20028;-71
2021/01/17 05:03:28;;;;;;;11.80;7.88;;;4.70;49.30;;;;;;5072790;28;20025;-70
2021/01/17 05:06:15;;;;;;;11.57;7.68;;;4.70;49.80;;;;;;5072723;28;20035;-72
2021/01/17 05:08:45;;;;;;;18.25;8.25;;;4.70;49.80;;;;;;5073024;28;20079;-71
2021/01/17 05:11:46;;;;;;;11.50;8.10;;;4.80;49.00;;;;;;5072331;28;20509;-71
2021/01/17 05:14:15;;;;;;;13.05;8.60;;;4.90;49.60;;;;;;5072975;28;20424;-71
2021/01/17 05:16:46;;;;;;;12.98;8.50;;;4.90;49.40;;;;;;5071268;28;20044;-71
2021/01/17 05:19:16;;;;;;;12.35;8.18;;;4.70;48.70;;;;;;5072414;28;20505;-72
2021/01/17 05:22:04;;;;;;;15.48;9.35;;;4.70;50.40;;;;;;5071377;28;20021;-69
2021/01/17 05:24:30;;;;;;;14.75;9.32;;;4.60;49.70;;;;;;5072711;28;20029;-71
2021/01/17 05:27:01;;;;;;;13.98;9.10;;;4.60;49.50;;;;;;5071085;28;20052;-71
2021/01/17 05:29:28;;;;;;;13.38;9.40;;;4.40;49.40;;;;;;5072502;28;20369;-71
2021/01/17 05:32:00;;;;;;;17.58;10.07;;;4.40;49.90;;;;;;5072426;28;20131;-71
2021/01/17 05:34:27;;;;;;;14.65;9.90;;;4.30;50.10;;;;;;5072191;28;20050;-71
2021/01/17 05:37:02;;;;;;;15.60;9.40;;;4.40;50.10;;;;;;5073381;28;20017;-71
2021/01/17 05:39:28;;;;;;;17.25;10.75;;;4.50;50.00;;;;;;5076183;28;20028;-71
2021/01/17 05:42:04;;;;;;;15.30;10.43;;;4.40;50.20;;;;;;5076169;28;20021;-71
2021/01/17 05:44:30;;;;;;;15.07;10.55;;;4.30;50.00;;;;;;5074791;28;20489;-71
2021/01/17 05:47:06;;;;;;;18.58;11.15;;;4.30;50.10;;;;;;5076107;28;20111;-72
2021/01/17 05:49:32;;;;;;;21.70;10.40;;;4.40;50.70;;;;;;5074581;28;20040;-70
2021/01/17 05:52:18;;;;;;;15.48;10.05;;;4.50;50.00;;;;;;5074836;28;20253;-72
2021/01/17 05:54:48;;;;;;;15.32;10.00;;;4.40;49.60;;;;;;5075585;28;20032;-71
2021/01/17 05:57:25;;;;;;;15.48;10.02;;;4.30;50.00;;;;;;5075620;28;20036;-71
2021/01/17 05:59:52;;;;;;;15.85;10.38;;;4.20;50.40;;;;;;5075750;28;20033;-71
2021/01/17 06:02:19;;;;;;;14.35;9.23;;;4.20;50.80;;;;;;5075608;28;20021;-71
2021/01/17 06:04:53;;;;;;;13.13;8.88;;;4.20;50.80;;;;;;5075664;28;20040;-71
2021/01/17 06:07:21;;;;;;;;;;;4.10;51.20;;;;;;5076026;28;20028;-70
2021/01/17 06:09:54;;;;;;;12.68;8.20;;;4.20;51.70;;;;;;5075287;28;20003;-71
2021/01/17 06:12:32;;;;;;;13.18;8.05;;;4.30;51.40;;;;;;5075596;28;20044;-71
2021/01/17 06:15:10;;;;;;;12.75;8.30;;;4.30;51.30;;;;;;5074196;28;20028;-70
2021/01/17 06:17:45;;;;;;;15.23;8.23;;;4.40;51.20;;;;;;5075441;28;20031;-72
2021/01/17 06:20:21;;;;;;;15.45;8.20;;;4.30;51.00;;;;;;5075330;28;20021;-71
2021/01/17 06:22:48;;;;;;;14.20;8.73;;;4.40;50.20;;;;;;5075353;28;20063;-71
2021/01/17 06:25:14;;;;;;;12.80;7.93;;;4.40;50.30;;;;;;5075607;28;20070;-71
2021/01/17 06:27:40;;;;;;;11.70;7.43;;;4.40;50.30;;;;;;5075431;28;20094;-71
2021/01/17 06:30:18;;;;;;;13.45;8.20;;;4.40;50.10;;;;;;5075229;28;20411;-72
2021/01/17 06:32:46;;;;;;;15.27;8.52;;;4.50;50.30;;;;;;5075225;28;20028;-71
2021/01/17 06:35:12;;;;;;;14.32;8.55;;;4.50;50.10;;;;;;5073938;28;20120;-71
2021/01/17 06:37:38;;;;;;;16.63;8.18;;;4.50;49.90;;;;;;5075204;28;20033;-71
2021/01/17 06:40:07;;;;;;;13.57;8.27;;;4.60;50.00;;;;;;5073819;28;20466;-71
2021/01/17 06:42:33;;;;;;;13.15;7.95;;;4.70;50.20;;;;;;5075055;28;20054;-71
2021/01/17 06:44:59;;;;;;;12.70;8.90;;;4.70;49.50;;;;;;5073783;28;20119;-71
2021/01/17 06:47:26;;;;;;;16.10;8.88;;;4.60;49.60;;;;;;5075020;28;20035;-70
2021/01/17 06:49:54;;;;;;;14.20;8.88;;;4.60;49.60;;;;;;5073836;28;20029;-70
2021/01/17 06:52:20;;;;;;;14.52;8.98;;;4.50;49.90;;;;;;5074918;28;20021;-70
2021/01/17 06:54:53;;;;;;;15.48;9.95;;;4.50;49.80;;;;;;5074792;28;20039;-70
2021/01/17 06:57:20;;;;;;;20.67;9.70;;;4.40;50.20;;;;;;5074841;28;20020;-70
2021/01/17 06:59:48;;;;;;;17.50;9.70;;;4.50;50.80;;;;;;5074971;28;20033;-71
2021/01/17 07:02:14;;;;;;;17.65;8.93;;;4.60;50.40;;;;;;5074726;28;20147;-70
2021/01/17 07:04:53;;;;;;;16.42;9.45;;;4.80;50.30;;;;;;5074841;28;20440;-72
2021/01/17 07:07:52;;;;;;;13.85;8.73;;;4.90;50.40;;;;;;5073070;28;20393;-71
2021/01/17 07:10:24;;;;;;;14.23;8.70;;;4.90;50.10;;;;;;5072741;28;20036;-71
2021/01/17 07:13:09;;;;;;;13.77;7.68;;;4.90;49.50;;;;;;5074145;28;20077;-71
2021/01/17 07:15:37;;;;;;;15.35;9.48;;;5.00;49.40;;;;;;5074504;28;20111;-71
2021/01/17 07:18:16;;;;;;;16.35;8.13;;;4.90;49.20;;;;;;5074458;28;20539;-71
2021/01/17 07:20:49;;;;;;;12.50;8.63;;;4.90;50.30;;;;;;5074389;28;20035;-70
2021/01/17 07:23:17;;;;;;;12.15;8.15;;;4.90;50.20;;;;;;5074439;28;20416;-71
2021/01/17 07:25:45;;;;;;;14.75;8.85;;;5.00;49.20;;;;;;5074682;28;20032;-71
2021/01/17 07:28:18;;;;;;;14.10;9.23;;;5.00;49.30;;;;;;5074856;28;20039;-70
2021/01/17 07:30:49;;;;;;;12.07;8.32;;;5.10;49.20;;;;;;5072919;28;20097;-71
2021/01/17 07:33:18;;;;;;;14.80;8.45;;;5.20;49.80;;;;;;5073970;28;20097;-72
2021/01/17 07:35:46;;;;;;;13.65;8.38;;;5.30;49.00;;;;;;5072650;28;20054;-72
2021/01/17 07:38:21;;;;;;;15.63;8.95;;;5.30;48.80;;;;;;5072795;28;20024;-71
2021/01/17 07:41:01;;;;;;;12.57;8.75;;;5.40;49.70;;;;;;5075139;28;20489;-70
2021/01/17 07:43:42;;;;;;;15.13;8.80;;;5.50;49.60;;;;;;5081778;28;20025;-71
2021/01/17 07:46:15;;;;;;;13.25;8.52;;;5.60;49.50;;;;;;5079767;28;20053;-71
2021/01/17 07:48:42;;;;;;;12.75;8.73;;;5.60;48.90;;;;;;5080520;28;20101;-72
2021/01/17 07:51:10;;;;;;;13.45;8.88;;;5.60;48.90;;;;;;5074400;28;20032;-72
2021/01/17 07:53:38;;;;;;;14.90;8.70;;;5.60;48.80;;;;;;5074171;28;20500;-71
2021/01/17 07:56:10;;;;;;;14.20;8.70;;;5.60;49.00;;;;;;5073679;28;20021;-71
2021/01/17 07:58:47;;;;;;;15.23;9.45;;;5.50;49.70;;;;;;5073388;28;20033;-71
2021/01/17 08:01:30;;;;;;;15.25;9.38;;;5.40;49.80;;;;;;5073326;28;20032;-72
2021/01/17 08:04:05;;;;;;;16.35;9.00;;;5.20;49.60;;;;;;5073497;28;20047;-72
2021/01/17 08:06:54;;;;;;;14.70;8.77;;;5.20;50.70;;;;;;5073434;28;20382;-71
2021/01/17 08:09:47;;;;;;;13.95;8.23;;;5.40;50.40;;;;;;5073335;28;20020;-71
2021/01/17 08:12:33;;;;;;;14.23;9.40;;;5.20;50.30;;;;;;5071843;28;20097;-72
2021/01/17 08:15:11;;;;;;;15.35;8.57;;;5.20;50.00;;;;;;5073597;28;20074;-71
2021/01/17 08:17:37;;;;;;;14.30;8.90;;;5.30;50.20;;;;;;5073601;28;20017;-71
2021/01/17 08:20:05;;;;;;;13.52;7.70;;;5.30;50.00;;;;;;5073058;28;20078;-71
2021/01/17 08:22:30;;;;;;;15.18;9.35;;;5.30;49.90;;;;;;5073117;28;20382;-70
2021/01/17 08:25:05;;;;;;;13.40;9.02;;;5.40;49.70;;;;;;5071794;28;20494;-71
2021/01/17 08:27:36;;;;;;;14.00;9.80;;;5.30;50.20;;;;;;5073543;28;20047;-71
2021/01/17 08:30:07;;;;;;;12.65;8.70;;;5.40;49.70;;;;;;5071940;28;20493;-71
2021/01/17 08:32:45;;;;;;;14.95;9.63;;;5.50;50.30;;;;;;5073100;28;20033;-70
2021/01/17 08:35:10;;;;;;;18.85;9.93;;;5.50;50.30;;;;;;5073280;28;20039;-70
2021/01/17 08:37:43;;;;;;;14.32;8.85;;;5.50;49.30;;;;;;5072833;28;20032;-71
2021/01/17 08:40:10;;;;;;;15.43;9.15;;;5.60;50.30;;;;;;5072698;28;20461;-71
2021/01/17 08:42:48;;;;;;;17.40;9.73;;;5.80;49.50;;;;;;5073031;28;20035;-71
2021/01/17 08:45:23;;;;;;;13.35;9.30;;;5.90;49.40;;;;;;5072824;28;20021;-72
2021/01/17 08:47:52;;;;;;;16.80;9.73;;;5.90;49.20;;;;;;5073039;28;20108;-71
2021/01/17 08:50:33;;;;;;;12.60;8.70;;;6.00;49.90;;;;;;5072744;28;20029;-70
2021/01/17 08:53:30;;;;;;;14.40;9.05;;;6.00;49.90;;;;;;5071420;28;20048;-72
2021/01/17 08:56:20;;;;;;;17.13;10.40;;;6.00;50.10;;;;;;5072968;28;20028;-71
2021/01/17 08:58:55;;;;;;;14.15;9.43;;;6.00;49.20;;;;;;5072108;28;20550;-71
2021/01/17 09:01:22;;;;;;;15.18;9.55;;;6.00;50.10;;;;;;5072611;28;20461;-72
2021/01/17 09:03:55;;;;;;;18.00;9.73;;;6.10;49.60;;;;;;5071540;28;20028;-72
2021/01/17 09:06:26;;;;;;;17.33;10.43;;;6.20;49.70;;;;;;5071642;28;20020;-72
2021/01/17 09:08:58;;;;;;;21.88;10.82;;;6.30;49.80;;;;;;5072793;28;20033;-72
2021/01/17 09:11:36;;;;;;;16.35;10.75;;;6.40;49.60;;;;;;5071619;28;20040;-72
2021/01/17 09:14:25;;;;;;;15.80;9.95;;;6.50;49.80;;;;;;5075369;28;20114;-73
2021/01/17 09:17:01;;;;;;;14.63;9.65;;;6.50;50.20;;;;;;5076618;28;20127;-73
2021/01/17 09:19:35;;;;;;;13.15;8.57;;;6.60;50.10;;;;;;5075035;28;20112;-72
2021/01/17 09:22:04;;;;;;;14.20;9.02;;;6.60;49.90;;;;;;5076721;28;20100;-72
2021/01/17 09:24:35;;;;;;;17.83;10.02;;;6.60;49.80;;;;;;5075150;28;20024;-72
2021/01/17 09:27:03;;;;;;;17.23;10.35;;;6.60;50.00;;;;;;5077128;28;20082;-72
2021/01/17 09:29:36;;;;;;;21.27;9.98;;;6.60;50.10;;;;;;5077137;28;20427;-72
2021/01/17 09:32:06;;;;;;;16.92;10.15;;;6.70;50.20;;;;;;5076897;28;20131;-72
2021/01/17 09:34:41;;;;;;;18.85;10.93;;;6.80;51.20;;;;;;5059229;28;20131;-71
2021/01/17 09:37:12;;;;;;;15.70;10.35;;;6.80;50.40;;;;;;5076924;28;20024;-72
2021/01/17 09:39:42;;;;;;;17.15;10.40;;;6.80;50.80;;;;;;5076432;28;20047;-72
2021/01/17 09:42:09;;;;;;;17.70;10.40;;;6.90;50.60;;;;;;5076765;28;20024;-72
2021/01/17 09:44:37;;;;;;;14.77;9.98;;;6.90;50.80;;;;;;5076354;28;20099;-72
2021/01/17 09:47:03;;;;;;;14.23;9.57;;;6.90;50.80;;;;;;5076202;28;20024;-72
2021/01/17 09:49:31;;;;;;;12.93;8.90;;;6.90;50.80;;;;;;5076185;28;20481;-72
2021/01/17 09:51:57;;;;;;;17.80;9.75;;;7.00;51.20;;;;;;5076271;28;20029;-72
2021/01/17 09:54:23;;;;;;;19.10;10.52;;;7.00;51.30;;;;;;5076278;28;20539;-72
2021/01/17 09:56:50;;;;;;;17.45;10.93;;;7.00;51.40;;;;;;5076211;28;20389;-72
2021/01/17 09:59:18;;;;;;;13.32;9.20;;;7.10;51.50;;;;;;5076368;28;20051;-72
2021/01/17 10:01:45;;;;;;;14.82;8.45;;;7.10;51.70;;;;;;5058406;28;20470;-71
2021/01/17 10:04:27;;;;;;;10.40;7.25;;;7.10;52.30;;;;;;5076422;28;20032;-72
2021/01/17 10:06:56;;;;;;;9.18;6.50;;;7.20;52.50;;;;;;5076512;28;20465;-72
2021/01/17 10:09:23;;;;;;;13.63;8.20;;;7.20;52.70;;;;;;5075880;28;20107;-72
2021/01/17 10:11:57;;;;;;;12.45;7.30;;;7.30;52.40;;;;;;5075835;28;20080;-73
2021/01/17 10:14:27;;;;;;;18.83;6.47;;;7.30;53.20;;;;;;5076193;28;20033;-71
2021/01/17 10:16:58;;;;;;;12.15;6.20;;;7.30;53.60;;;;;;5075894;28;20043;-71
2021/01/17 10:19:25;;;;;;;10.63;6.07;;;7.30;53.80;;;;;;5075775;28;20051;-71
2021/01/17 10:21:51;;;;;;;12.38;5.75;;;7.40;53.90;;;;;;5075752;28;20021;-72
2021/01/17 10:24:24;;;;;;;10.05;5.65;;;7.40;54.30;;;;;;5075472;28;20021;-72
2021/01/17 10:26:52;;;;;;;8.55;5.50;;;7.50;54.90;;;;;;5074475;28;20470;-71
2021/01/17 10:29:26;;;;;;;10.98;6.50;;;7.50;54.70;;;;;;5075981;28;20071;-70
2021/01/17 10:31:58;;;;;;;11.43;5.60;;;7.50;54.80;;;;;;5075896;28;20089;-72
2021/01/17 10:34:25;;;;;;;7.78;4.28;;;7.50;55.40;;;;;;5075363;28;20413;-73
2021/01/17 10:36:55;;;;;;;9.07;4.72;;;7.40;55.70;;;;;;5074357;28;20058;-72
2021/01/17 10:39:22;;;;;;;9.50;4.55;;;7.40;55.60;;;;;;5075996;28;20032;-71
2021/01/17 10:41:50;;;;;;;7.10;4.32;;;7.40;55.90;;;;;;5075890;28;20438;-71
2021/01/17 10:44:24;;;;;;;10.90;4.85;;;7.30;56.50;;;;;;5075540;28;20093;-72
2021/01/17 10:47:03;;;;;;;9.88;4.90;;;7.30;56.60;;;;;;5075435;28;20036;-71
2021/01/17 10:49:33;;;;;;;9.45;5.35;;;7.20;56.70;;;;;;5074236;28;20040;-72
2021/01/17 10:52:09;;;;;;;9.60;5.55;;;7.30;56.80;;;;;;5075571;28;20025;-71
2021/01/17 10:54:35;;;;;;;12.70;6.68;;;7.30;56.40;;;;;;5075312;28;20040;-73
2021/01/17 10:57:03;;;;;;;11.02;6.50;;;7.30;56.30;;;;;;5075364;28;20501;-73
2021/01/17 10:59:30;;;;;;;11.55;7.30;;;7.20;56.50;;;;;;5075163;28;20477;-72
2021/01/17 11:01:56;;;;;;;12.45;7.90;;;7.10;56.60;;;;;;5075211;28;20021;-71
2021/01/17 11:04:21;;;;;;;12.65;8.48;;;7.10;56.50;;;;;;5074011;28;20042;-72
2021/01/17 11:06:48;;;;;;;13.82;8.40;;;7.10;56.80;;;;;;5073426;28;20099;-72
2021/01/17 11:09:16;;;;;;;14.10;8.45;;;7.10;56.60;;;;;;5075011;28;20108;-72
2021/01/17 11:11:45;;;;;;;12.82;8.38;;;7.10;56.30;;;;;;5075014;28;20114;-71
2021/01/17 11:14:11;;;;;;;15.00;9.10;;;7.10;56.60;;;;;;5075194;28;20086;-72
2021/01/17 11:16:50;;;;;;;14.15;9.73;;;7.10;56.10;;;;;;5075456;28;20416;-72
2021/01/17 11:19:17;;;;;;;13.02;9.25;;;7.10;56.10;;;;;;5074762;28;20032;-71
2021/01/17 11:21:45;;;;;;;13.13;9.27;;;7.10;55.90;;;;;;5074727;28;20024;-71
2021/01/17 11:24:12;;;;;;;16.13;11.40;;;7.10;55.90;;;;;;5074782;28;20052;-72
2021/01/17 11:26:38;;;;;;;16.45;10.20;;;7.10;55.30;;;;;;5073151;28;20035;-71
2021/01/17 11:29:06;;;;;;;15.50;11.07;;;7.00;55.20;;;;;;5073914;28;20404;-71
2021/01/17 11:31:33;;;;;;;19.40;11.95;;;7.10;55.40;;;;;;5074047;28;20032;-72
2021/01/17 11:34:10;;;;;;;17.95;11.98;;;7.10;55.60;;;;;;5073633;28;20028;-72
2021/01/17 11:36:36;;;;;;;18.23;11.13;;;7.20;55.30;;;;;;5073630;28;20020;-72
2021/01/17 11:39:02;;;;;;;17.55;11.95;;;7.10;55.50;;;;;;5072655;28;20031;-72
2021/01/17 11:41:39;;;;;;;17.52;11.98;;;7.10;55.70;;;;;;5073918;28;20021;-72
2021/01/17 11:44:08;;;;;;;15.93;10.35;;;7.10;56.10;;;;;;5073697;28;20358;-72
2021/01/17 11:46:33;;;;;;;14.32;10.85;;;7.00;55.50;;;;;;5073542;28;20032;-72
2021/01/17 11:49:00;;;;;;;15.85;10.65;;;7.00;55.40;;;;;;5073621;28;20029;-71
2021/01/17 11:51:26;;;;;;;15.40;9.80;;;7.00;55.50;;;;;;5072036;28;20025;-72
2021/01/17 11:53:51;;;;;;;12.65;9.65;;;6.90;56.00;;;;;;5073307;28;20036;-72
2021/01/17 11:56:17;;;;;;;14.63;9.25;;;6.90;55.70;;;;;;5073758;28;20035;-72
2021/01/17 11:58:43;;;;;;;14.30;9.63;;;6.90;56.50;;;;;;5073374;28;20102;-72
2021/01/17 12:01:09;;;;;;;12.02;9.02;;;6.90;56.10;;;;;;5073165;28;20074;-73
2021/01/17 12:03:37;;;;;;;13.93;8.77;;;6.90;56.40;;;;;;5073326;28;20032;-72
2021/01/17 12:06:06;;;;;;;16.63;9.43;;;6.90;57.10;;;;;;5072234;28;20027;-72
2021/01/17 12:08:53;;;;;;;12.75;8.88;;;6.80;57.20;;;;;;5072073;28;20056;-73
2021/01/17 12:11:39;;;;;;;13.70;9.15;;;6.80;58.00;;;;;;5071715;28;20052;-72
2021/01/17 12:14:13;;;;;;;15.30;8.20;;;6.80;58.10;;;;;;5073392;28;20098;-71
2021/01/17 12:16:50;;;;;;;11.82;7.70;;;6.80;58.70;;;;;;5071800;28;20016;-73
2021/01/17 12:19:17;;;;;;;11.82;8.10;;;6.80;59.20;;;;;;5073397;28;20035;-73
2021/01/17 12:21:44;;;;;;;13.02;8.32;;;6.70;60.00;;;;;;5073402;28;20393;-72
2021/01/17 12:24:12;;;;;;;12.38;8.00;;;6.70;60.40;;;;;;5073275;28;20024;-71
2021/01/17 12:26:39;;;;;;;13.02;8.18;;;6.70;60.50;;;;;;5072267;28;20033;-72
2021/01/17 12:29:05;;;;;;;11.95;8.02;;;6.70;60.80;;;;;;5074236;28;20029;-72
2021/01/17 12:31:31;;;;;;;12.60;8.13;;;6.60;61.00;;;;;;5073873;28;20024;-73
2021/01/17 12:33:58;;;;;;;13.65;8.55;;;6.60;61.50;;;;;;5073630;28;20071;-73
2021/01/17 12:36:25;;;;;;;13.27;8.93;;;6.60;61.80;;;;;;5072088;28;20025;-72
2021/01/17 12:38:51;;;;;;;14.82;9.75;;;6.60;61.90;;;;;;5072143;28;20115;-71
2021/01/17 12:41:20;;;;;;;13.07;8.55;;;6.60;61.60;;;;;;5072210;28;20100;-72
2021/01/17 12:43:47;;;;;;;12.02;8.55;;;6.60;61.90;;;;;;5073225;28;20028;-73
2021/01/17 12:46:14;;;;;;;13.00;8.35;;;6.70;62.70;;;;;;5072348;28;20055;-72
2021/01/17 12:48:40;;;;;;;12.68;9.00;;;6.70;63.20;;;;;;5073064;28;20533;-72
2021/01/17 12:51:08;;;;;;;15.20;8.55;;;6.80;61.90;;;;;;5073166;28;20060;-72
2021/01/17 12:53:39;;;;;;;13.30;9.27;;;6.70;62.50;;;;;;5073211;28;20020;-72
2021/01/17 12:56:05;;;;;;;11.68;8.77;;;6.80;61.80;;;;;;5073023;28;20048;-72
2021/01/17 12:58:31;;;;;;;10.98;8.40;;;6.80;62.20;;;;;;5073087;28;20046;-73
2021/01/17 13:00:57;;;;;;;13.63;9.18;;;6.90;62.60;;;;;;5071735;28;20021;-72